Other Surface Observations
Issued by NWS Great Falls, MT

Home | Current Version | Previous Version | Text Only | Print | Product List | Glossary On
Versions: 1 2 3 4 5 6 7 8 9 10 11 12 13 14 15 16 17 18 19 20 21 22 23 24 25 26 27 28 29 30 31 32 33 34 35 36 37 38 39 40 41 42 43 44 45 46 47 48 49 50
000
SXUS55 KTFX 232259
OSOTFX
AREA AWOS OBSERVATIONS
NATIONAL WEATHER SERVICE GREAT FALLS MT
0359 PM MST MON JAN 23 2017

METAR KPWD 232300Z AUTO 30009KT 7SM M06/M09 A2978 RMK PLENTYWOOD
METAR KPO1 232300Z AUTO 00000KT 1SM M04/M07 A2981 RMK POPLAR
METAR K1S3 232300Z AUTO 00000KT 9SM M04/M04 A2975 RMK FORSYTH
METAR KS71 232300Z AUTO 33007KT 10SM M05/M08 A2983 RMK CHINOOK
METAR K79S 232300Z AUTO 7SM M04/M07 A2983 RMK FORT BENTON
METAR K38S 232300Z AUTO 01011G14KT 10SM M04/M09 A2968 RMK DEER LODGE
METAR K3U3 232300Z AUTO 35011KT 10SM M05/M09 A2964 RMK ANACONDA
METAR K6S5 232300Z AUTO 00000KT 10SM M03/M07 A2967 RMK HAMILTON
METAR K88M 232300Z AUTO 00000KT 10SM 01/M06 A2976 RMK EUREKA



USA.gov is the U.S. government's official web portal to all federal, state and local government web resources and services.